createdAt,value
2023-03-30T00:00:18.394Z,81.56
2023-03-30T00:02:47.228Z,81.21
2023-03-30T00:05:13.978Z,80.66
2023-03-30T00:07:43.393Z,80.12
2023-03-30T00:10:17.750Z,79.87
2023-03-30T00:12:47.169Z,79.64
2023-03-30T00:15:16.517Z,79.54
2023-03-30T00:17:43.508Z,79.27
2023-03-30T00:20:14.113Z,79.08
2023-03-30T00:22:41.824Z,78.87
2023-03-30T00:25:10.387Z,78.80
2023-03-30T00:27:37.432Z,78.71
2023-03-30T00:30:05.796Z,78.83
2023-03-30T00:32:32.459Z,78.65
2023-03-30T00:34:58.844Z,78.45
2023-03-30T00:37:25.743Z,78.41
2023-03-30T00:39:53.392Z,78.50
2023-03-30T00:42:21.694Z,78.38
2023-03-30T00:45:18.965Z,77.99
2023-03-30T00:48:12.382Z,77.40
2023-03-30T00:50:40.759Z,77.45
2023-03-30T00:53:12.648Z,77.13
2023-03-30T00:55:41.254Z,76.90
2023-03-30T00:58:09.811Z,76.69
2023-03-30T01:00:38.600Z,76.33
2023-03-30T01:03:11.709Z,75.88
2023-03-30T01:05:41.295Z,75.48
2023-03-30T01:08:09.924Z,75.39
2023-03-30T01:10:36.312Z,75.54
2023-03-30T01:13:03.964Z,75.92
2023-03-30T01:15:34.862Z,75.71
2023-03-30T01:18:24.049Z,75.49
2023-03-30T01:21:24.632Z,75.69
2023-03-30T01:24:17.823Z,75.86
2023-03-30T01:27:00.604Z,75.73
2023-03-30T01:29:56.981Z,75.70
2023-03-30T01:33:02.471Z,75.94
2023-03-30T01:35:47.809Z,76.03
2023-03-30T01:38:32.712Z,76.18
2023-03-30T01:41:09.785Z,76.20
2023-03-30T01:43:39.004Z,76.04
2023-03-30T01:46:25.366Z,76.00
2023-03-30T01:49:15.203Z,76.15
2023-03-30T01:51:57.368Z,76.52
2023-03-30T01:54:30.728Z,76.13
2023-03-30T01:57:13.277Z,76.53
2023-03-30T01:59:48.222Z,76.79
2023-03-30T02:02:17.518Z,76.59
2023-03-30T02:04:45.663Z,76.95
2023-03-30T02:07:19.238Z,77.21
2023-03-30T02:09:48.958Z,77.28
2023-03-30T02:12:16.279Z,77.11
2023-03-30T02:14:43.406Z,77.44
2023-03-30T02:19:42.142Z,77.38
2023-03-30T02:22:08.653Z,77.53
2023-03-30T02:24:36.510Z,77.54
2023-03-30T02:27:04.108Z,77.58
2023-03-30T02:29:33.895Z,77.67
2023-03-30T02:32:00.979Z,77.53
2023-03-30T02:34:30.299Z,77.65
2023-03-30T02:37:17.862Z,77.81
2023-03-30T02:40:19.849Z,77.85
2023-03-30T02:43:24.421Z,77.55
2023-03-30T02:46:14.881Z,77.43
2023-03-30T02:48:56.808Z,76.97
2023-03-30T02:51:47.252Z,76.84
2023-03-30T02:54:25.411Z,76.60
2023-03-30T02:56:58.130Z,76.77
2023-03-30T02:59:35.948Z,76.21
2023-03-30T03:02:10.184Z,76.33
2023-03-30T03:04:37.313Z,76.35
2023-03-30T03:07:04.733Z,76.17
2023-03-30T03:09:31.141Z,76.36
2023-03-30T03:11:57.623Z,76.62
2023-03-30T03:14:26.435Z,76.98
2023-03-30T03:16:54.500Z,77.09
2023-03-30T03:19:21.012Z,77.29
2023-03-30T03:21:47.417Z,77.63
2023-03-30T03:24:17.205Z,77.46
2023-03-30T03:26:43.875Z,77.65
2023-03-30T03:29:10.264Z,77.49
2023-03-30T03:31:36.893Z,78.02
2023-03-30T03:34:03.448Z,78.34
2023-03-30T03:36:30.649Z,78.56
2023-03-30T03:38:57.096Z,78.70
2023-03-30T03:41:23.699Z,78.85
2023-03-30T03:43:50.321Z,79.07
2023-03-30T03:46:16.717Z,79.29
2023-03-30T03:48:43.147Z,79.49
2023-03-30T03:51:09.845Z,79.70
2023-03-30T03:53:36.782Z,79.83
2023-03-30T03:56:03.669Z,79.87
2023-03-30T03:58:30.554Z,79.89
2023-03-30T04:01:00.977Z,80.43
2023-03-30T04:03:28.683Z,80.42
2023-03-30T04:05:59.056Z,80.47
2023-03-30T04:08:25.704Z,80.63
2023-03-30T04:10:52.137Z,80.90
2023-03-30T04:13:18.612Z,81.05
2023-03-30T04:15:45.009Z,81.08
2023-03-30T04:18:11.485Z,80.98
2023-03-30T04:20:38.020Z,81.01
2023-03-30T04:23:04.360Z,80.82
2023-03-30T04:25:31.059Z,81.04
2023-03-30T04:27:57.538Z,81.00
2023-03-30T04:30:24.003Z,81.19
2023-03-30T04:33:02.638Z,81.05
2023-03-30T04:35:31.200Z,81.03
2023-03-30T04:37:58.070Z,81.07
2023-03-30T04:40:24.734Z,81.13
2023-03-30T04:42:51.149Z,81.24
2023-03-30T04:45:18.409Z,81.08
2023-03-30T04:47:46.540Z,81.15
2023-03-30T04:50:13.602Z,81.50
2023-03-30T04:52:40.366Z,81.55
2023-03-30T04:55:08.671Z,81.71
2023-03-30T04:57:35.290Z,81.91
2023-03-30T05:00:01.879Z,81.96
2023-03-30T05:02:28.450Z,82.07
2023-03-30T05:04:54.921Z,82.50
2023-03-30T05:07:21.574Z,82.69
2023-03-30T05:09:48.003Z,83.03
2023-03-30T05:12:15.585Z,83.64
2023-03-30T05:14:42.780Z,83.46
2023-03-30T05:17:09.483Z,84.05
2023-03-30T05:19:36.771Z,84.29
2023-03-30T05:22:03.126Z,84.42
2023-03-30T05:24:29.579Z,84.75
2023-03-30T05:26:56.326Z,84.97
2023-03-30T05:29:22.655Z,85.17
2023-03-30T05:31:49.243Z,85.34
2023-03-30T05:34:15.928Z,85.57
2023-03-30T05:36:42.732Z,85.42
2023-03-30T05:39:09.189Z,85.90
2023-03-30T05:41:35.644Z,85.80
2023-03-30T05:44:02.046Z,86.36
2023-03-30T05:46:28.426Z,86.82
2023-03-30T05:48:54.837Z,87.25
2023-03-30T05:51:21.576Z,86.97
2023-03-30T05:53:47.909Z,87.35
2023-03-30T05:56:14.314Z,87.17
2023-03-30T05:58:40.720Z,86.88
2023-03-30T06:01:09.307Z,87.02
2023-03-30T06:03:36.032Z,87.11
2023-03-30T06:06:02.547Z,86.93
2023-03-30T06:08:29.006Z,86.93
2023-03-30T06:10:56.793Z,86.38
2023-03-30T06:13:23.374Z,85.72
2023-03-30T06:15:49.848Z,85.76
2023-03-30T06:18:16.548Z,85.70
2023-03-30T06:20:45.832Z,85.85
2023-03-30T06:23:12.229Z,85.47
2023-03-30T06:25:38.635Z,85.51
2023-03-30T06:28:05.077Z,85.38
2023-03-30T06:30:31.618Z,85.24
2023-03-30T06:32:58.035Z,85.39
2023-03-30T06:35:24.632Z,85.07
2023-03-30T06:37:51.703Z,84.97
2023-03-30T06:40:18.996Z,85.23
2023-03-30T06:42:45.500Z,85.04
2023-03-30T06:45:12.818Z,84.51
2023-03-30T06:47:41.091Z,83.96
2023-03-30T06:50:08.415Z,83.74
2023-03-30T06:52:36.542Z,82.46
2023-03-30T06:55:06.437Z,82.33
2023-03-30T06:57:32.903Z,81.99
2023-03-30T06:59:59.338Z,81.51
2023-03-30T07:02:26.312Z,80.78
2023-03-30T07:04:52.787Z,80.64
2023-03-30T07:07:19.733Z,80.31
2023-03-30T07:09:46.168Z,79.58
2023-03-30T07:12:12.583Z,79.15
2023-03-30T07:14:38.997Z,79.51
2023-03-30T07:17:05.388Z,79.60
2023-03-30T07:19:31.767Z,79.59
2023-03-30T07:21:58.261Z,79.50
2023-03-30T07:24:24.631Z,79.05
2023-03-30T07:26:51.022Z,78.94
2023-03-30T07:29:17.477Z,79.42
2023-03-30T07:31:43.914Z,79.08
2023-03-30T07:34:10.334Z,79.19
2023-03-30T07:36:36.679Z,79.20
2023-03-30T07:39:03.766Z,79.03
2023-03-30T07:41:30.134Z,78.69
2023-03-30T07:43:56.510Z,78.52
2023-03-30T07:46:22.949Z,78.41
2023-03-30T07:48:49.497Z,78.30
2023-03-30T07:51:16.031Z,77.11
2023-03-30T07:53:43.091Z,76.88
2023-03-30T07:56:10.301Z,77.55
2023-03-30T07:58:37.200Z,76.85
2023-03-30T08:01:05.056Z,77.16
2023-03-30T08:03:32.527Z,76.92
2023-03-30T08:06:04.470Z,77.18
2023-03-30T08:08:34.546Z,76.56
2023-03-30T08:11:01.288Z,77.36
2023-03-30T08:13:27.935Z,76.74
2023-03-30T08:15:54.584Z,76.76
2023-03-30T08:18:21.151Z,77.21
2023-03-30T08:20:51.612Z,76.94
2023-03-30T08:23:18.924Z,76.91
2023-03-30T08:25:47.190Z,76.85
2023-03-30T08:28:13.751Z,77.12
2023-03-30T08:30:40.140Z,77.25
2023-03-30T08:33:08.901Z,77.12
2023-03-30T08:35:35.448Z,77.06
2023-03-30T08:38:01.936Z,77.06
2023-03-30T08:40:28.332Z,76.98
2023-03-30T08:43:10.279Z,76.84
2023-03-30T08:45:42.788Z,76.89
2023-03-30T08:48:20.496Z,76.71
2023-03-30T08:50:57.201Z,76.90
2023-03-30T08:53:23.714Z,77.08
2023-03-30T08:55:57.068Z,76.47
2023-03-30T08:58:32.500Z,76.00
2023-03-30T09:01:25.311Z,75.68
2023-03-30T09:04:25.425Z,75.75
2023-03-30T09:06:57.308Z,75.71
2023-03-30T09:09:27.748Z,75.62
2023-03-30T09:12:13.093Z,75.46
2023-03-30T09:14:44.159Z,74.80
2023-03-30T09:17:21.903Z,75.26
2023-03-30T09:19:55.292Z,72.67
2023-03-30T09:22:28.979Z,73.25
2023-03-30T09:24:55.521Z,71.82
2023-03-30T09:27:27.017Z,71.63
2023-03-30T09:29:58.212Z,71.09
2023-03-30T09:32:40.974Z,70.53
2023-03-30T09:35:22.083Z,69.23
2023-03-30T09:37:48.595Z,69.37
2023-03-30T09:40:36.770Z,68.22
2023-03-30T09:43:30.493Z,69.36
2023-03-30T09:45:58.196Z,68.95
2023-03-30T09:48:24.640Z,69.21
2023-03-30T09:50:51.792Z,68.46
2023-03-30T09:53:25.115Z,67.74
2023-03-30T09:56:07.335Z,67.18
2023-03-30T09:58:34.737Z,67.72
2023-03-30T10:01:05.679Z,67.75
2023-03-30T10:03:33.060Z,66.85
2023-03-30T10:06:08.594Z,66.74
2023-03-30T10:08:42.812Z,65.60
2023-03-30T10:11:10.410Z,65.99
2023-03-30T10:13:41.291Z,65.75
2023-03-30T10:16:12.532Z,64.44
2023-03-30T10:18:45.066Z,65.18
2023-03-30T10:21:15.072Z,64.60
2023-03-30T10:23:45.822Z,64.28
2023-03-30T10:26:15.534Z,62.96
2023-03-30T10:28:55.177Z,63.77
2023-03-30T10:31:25.663Z,62.72
2023-03-30T10:33:57.925Z,63.60
2023-03-30T10:36:30.633Z,63.61
2023-03-30T10:39:13.226Z,64.34
2023-03-30T10:41:41.350Z,65.61
2023-03-30T10:44:19.932Z,65.59
2023-03-30T10:46:49.455Z,63.53
2023-03-30T10:49:42.969Z,62.21
2023-03-30T10:52:58.548Z,63.04
2023-03-30T10:55:31.189Z,62.97
2023-03-30T10:58:23.281Z,64.11
2023-03-30T11:01:00.778Z,63.71
2023-03-30T11:03:32.380Z,63.48
2023-03-30T11:06:06.920Z,63.73
2023-03-30T11:08:39.417Z,64.52
2023-03-30T11:11:07.114Z,64.54
2023-03-30T11:13:47.604Z,64.14
2023-03-30T11:16:23.339Z,61.67
2023-03-30T11:19:18.084Z,61.84
2023-03-30T11:21:59.807Z,59.47
2023-03-30T11:24:29.254Z,61.31
2023-03-30T11:27:20.702Z,61.12
2023-03-30T11:29:53.742Z,59.74
2023-03-30T11:32:44.204Z,60.62
2023-03-30T11:35:13.652Z,60.59
2023-03-30T11:38:06.676Z,60.66
2023-03-30T11:40:43.710Z,60.80
2023-03-30T11:43:15.460Z,60.84
2023-03-30T11:46:12.439Z,59.94
2023-03-30T11:49:13.475Z,60.32
2023-03-30T11:51:49.708Z,59.90
2023-03-30T11:54:56.019Z,59.95
2023-03-30T11:57:45.102Z,60.55
2023-03-30T12:00:26.910Z,61.24
2023-03-30T12:03:09.752Z,61.74
2023-03-30T12:05:45.385Z,61.95
2023-03-30T12:08:26.600Z,62.13
2023-03-30T12:11:06.795Z,61.66
2023-03-30T12:13:44.590Z,61.59
2023-03-30T12:16:28.058Z,61.42
2023-03-30T12:19:13.072Z,61.08
2023-03-30T12:21:52.163Z,61.68
2023-03-30T12:24:41.198Z,61.33
2023-03-30T12:27:11.560Z,62.18
2023-03-30T12:30:01.879Z,62.39
2023-03-30T12:32:30.837Z,63.06
2023-03-30T12:34:58.482Z,62.55
2023-03-30T12:37:35.311Z,62.00
2023-03-30T12:40:10.468Z,61.21
2023-03-30T12:42:46.787Z,61.47
2023-03-30T12:45:31.884Z,60.44
2023-03-30T12:48:23.010Z,61.26
2023-03-30T12:51:02.235Z,61.41
2023-03-30T12:53:47.146Z,60.99
2023-03-30T12:56:28.943Z,60.73
2023-03-30T12:59:04.634Z,61.51
2023-03-30T13:01:56.062Z,60.49
2023-03-30T13:04:27.145Z,59.94
2023-03-30T13:07:01.863Z,60.85
2023-03-30T13:09:33.064Z,61.79
2023-03-30T13:11:59.546Z,62.25
2023-03-30T13:14:39.268Z,63.69
2023-03-30T13:17:10.311Z,65.62
2023-03-30T13:19:40.911Z,66.61
2023-03-30T13:22:10.679Z,66.94
2023-03-30T13:24:46.388Z,67.69
2023-03-30T13:27:18.692Z,68.77
2023-03-30T13:30:02.225Z,68.88
2023-03-30T13:32:59.431Z,68.84
2023-03-30T13:35:44.580Z,69.39
2023-03-30T13:38:40.344Z,67.07
2023-03-30T13:41:54.117Z,64.92
2023-03-30T13:44:25.180Z,63.21
2023-03-30T13:46:54.564Z,62.49
2023-03-30T13:49:50.694Z,63.03
2023-03-30T13:52:30.212Z,62.00
2023-03-30T13:54:56.890Z,62.44
2023-03-30T13:57:33.947Z,60.92
2023-03-30T14:00:33.295Z,61.50
2023-03-30T14:03:34.316Z,61.42
2023-03-30T14:06:08.731Z,60.75
2023-03-30T14:08:38.873Z,60.73
2023-03-30T14:11:14.685Z,61.52
2023-03-30T14:13:42.004Z,61.82
2023-03-30T14:16:11.577Z,61.69
2023-03-30T14:18:38.245Z,61.95
2023-03-30T14:21:12.778Z,59.90
2023-03-30T14:23:42.604Z,59.27
2023-03-30T14:26:13.353Z,59.25
2023-03-30T14:28:42.553Z,58.19
2023-03-30T14:31:18.710Z,58.17
2023-03-30T14:33:45.595Z,58.05
2023-03-30T14:36:19.129Z,57.89
2023-03-30T14:38:48.297Z,58.08
2023-03-30T14:41:20.425Z,58.45
2023-03-30T14:43:54.357Z,57.53
2023-03-30T14:46:23.477Z,58.09
2023-03-30T14:48:50.811Z,57.10
2023-03-30T14:51:27.848Z,57.53
2023-03-30T14:53:55.088Z,56.14
2023-03-30T14:56:22.953Z,56.62
2023-03-30T14:58:51.958Z,57.79
2023-03-30T15:01:24.467Z,59.15
2023-03-30T15:03:52.873Z,57.42
2023-03-30T15:06:24.744Z,56.38
2023-03-30T15:08:51.445Z,57.22
2023-03-30T15:11:27.569Z,57.96
2023-03-30T15:14:01.634Z,57.33
2023-03-30T15:16:31.114Z,58.22
2023-03-30T15:19:04.146Z,57.76
2023-03-30T15:21:33.822Z,58.48
2023-03-30T15:24:01.278Z,58.23
2023-03-30T15:26:28.749Z,58.42
2023-03-30T15:29:00.023Z,59.18
2023-03-30T15:31:28.168Z,58.35
2023-03-30T15:33:57.552Z,58.39
2023-03-30T15:36:26.292Z,58.82
2023-03-30T15:38:58.721Z,58.24
2023-03-30T15:41:50.278Z,58.74
2023-03-30T15:44:19.610Z,58.72
2023-03-30T15:46:48.831Z,58.36
2023-03-30T15:49:19.596Z,58.31
2023-03-30T15:51:48.278Z,59.03
2023-03-30T15:54:15.886Z,59.01
2023-03-30T15:56:53.268Z,59.00
2023-03-30T15:59:21.854Z,58.94
2023-03-30T16:01:53.847Z,59.07
2023-03-30T16:04:23.235Z,59.49
2023-03-30T16:06:50.000Z,58.58
2023-03-30T16:09:17.129Z,58.95
2023-03-30T16:11:45.443Z,59.17
2023-03-30T16:14:15.626Z,59.36
2023-03-30T16:16:42.142Z,59.56
2023-03-30T16:19:13.372Z,59.60
2023-03-30T16:21:40.281Z,60.33
2023-03-30T16:24:07.230Z,60.82
2023-03-30T16:26:33.733Z,60.41
2023-03-30T16:29:00.474Z,60.92
2023-03-30T16:31:27.270Z,60.78
2023-03-30T16:33:53.673Z,61.24
2023-03-30T16:36:24.051Z,61.50
2023-03-30T16:38:50.431Z,61.88
2023-03-30T16:41:22.428Z,62.03
2023-03-30T16:43:49.001Z,62.23
2023-03-30T16:46:18.293Z,62.90
2023-03-30T16:48:46.145Z,62.87
2023-03-30T16:51:14.146Z,63.32
2023-03-30T16:53:41.534Z,63.12
2023-03-30T16:56:17.989Z,63.33
2023-03-30T16:58:45.252Z,63.43
2023-03-30T17:01:13.278Z,64.10
2023-03-30T17:03:39.968Z,64.14
2023-03-30T17:06:07.358Z,64.46
2023-03-30T17:08:33.793Z,64.30
2023-03-30T17:11:03.659Z,64.56
2023-03-30T17:13:31.954Z,64.55
2023-03-30T17:16:01.132Z,64.58
2023-03-30T17:18:28.175Z,64.86
2023-03-30T17:20:56.871Z,64.65
2023-03-30T17:23:25.677Z,64.95
2023-03-30T17:25:53.885Z,65.22
2023-03-30T17:28:27.967Z,65.28
2023-03-30T17:30:56.659Z,65.59
2023-03-30T17:33:23.468Z,65.62
2023-03-30T17:36:12.611Z,65.99
2023-03-30T17:38:39.713Z,66.59
2023-03-30T17:41:08.816Z,66.74
2023-03-30T17:43:35.276Z,67.15
2023-03-30T17:46:01.859Z,67.27
2023-03-30T17:48:28.305Z,67.71
2023-03-30T17:50:54.656Z,67.70
2023-03-30T17:53:21.508Z,68.13
2023-03-30T17:55:52.545Z,68.34
2023-03-30T17:58:32.791Z,68.84
2023-03-30T18:01:01.024Z,69.05
2023-03-30T18:03:31.156Z,69.30
2023-03-30T18:06:00.147Z,69.52
2023-03-30T18:08:28.096Z,69.70
2023-03-30T18:10:57.125Z,69.83
2023-03-30T18:13:25.156Z,70.10
2023-03-30T18:15:54.707Z,70.18
2023-03-30T18:18:24.768Z,70.35
2023-03-30T18:20:54.234Z,70.76
2023-03-30T18:23:21.886Z,70.90
2023-03-30T18:25:49.313Z,71.14
2023-03-30T18:28:18.493Z,71.62
2023-03-30T18:30:45.278Z,71.56
2023-03-30T18:33:12.081Z,71.46
2023-03-30T18:35:38.884Z,71.75
2023-03-30T18:38:05.895Z,72.14
2023-03-30T18:40:33.006Z,72.13
2023-03-30T18:43:00.516Z,72.51
2023-03-30T18:45:33.899Z,72.80
2023-03-30T18:48:01.758Z,72.93
2023-03-30T18:50:36.103Z,73.20
2023-03-30T18:53:04.507Z,73.43
2023-03-30T18:55:33.823Z,73.26
2023-03-30T18:58:00.240Z,73.77
2023-03-30T19:00:29.512Z,73.68
2023-03-30T19:02:57.298Z,74.11
2023-03-30T19:05:26.407Z,74.35
2023-03-30T19:07:53.689Z,74.72
2023-03-30T19:10:28.284Z,74.88
2023-03-30T19:12:55.612Z,74.94
2023-03-30T19:15:21.923Z,75.28
2023-03-30T19:17:48.369Z,75.68
2023-03-30T19:20:15.736Z,75.88
2023-03-30T19:22:42.133Z,75.99
2023-03-30T19:25:09.776Z,76.08
2023-03-30T19:27:36.545Z,76.40
2023-03-30T19:30:04.161Z,76.78
2023-03-30T19:32:31.082Z,76.79
2023-03-30T19:34:57.446Z,77.13
2023-03-30T19:37:23.939Z,77.18
2023-03-30T19:39:51.248Z,77.65
2023-03-30T19:42:17.745Z,77.39
2023-03-30T19:44:44.187Z,77.27
2023-03-30T19:47:10.607Z,77.92
2023-03-30T19:49:37.145Z,78.01
2023-03-30T19:52:03.550Z,78.22
2023-03-30T19:54:29.904Z,78.62
2023-03-30T19:56:56.906Z,78.50
2023-03-30T19:59:23.445Z,78.40
2023-03-30T20:01:49.948Z,78.79
2023-03-30T20:04:16.392Z,79.45
2023-03-30T20:06:42.801Z,79.66
2023-03-30T20:09:09.225Z,79.35
2023-03-30T20:11:35.626Z,79.55
2023-03-30T20:14:02.127Z,79.57
2023-03-30T20:16:29.940Z,79.70
2023-03-30T20:18:57.803Z,79.86
2023-03-30T20:21:26.670Z,80.45
2023-03-30T20:23:53.289Z,80.39
2023-03-30T20:26:19.717Z,80.69
2023-03-30T20:28:46.827Z,80.80
2023-03-30T20:31:13.898Z,80.80
2023-03-30T20:33:40.625Z,81.21
2023-03-30T20:36:07.837Z,81.27
2023-03-30T20:38:34.326Z,81.63
2023-03-30T20:41:04.193Z,81.44
2023-03-30T20:43:33.731Z,81.41
2023-03-30T20:46:05.638Z,81.77
2023-03-30T20:48:33.576Z,81.89
2023-03-30T20:51:05.097Z,81.69
2023-03-30T20:53:33.768Z,81.78
2023-03-30T20:56:01.639Z,81.95
2023-03-30T20:58:29.301Z,82.33
2023-03-30T21:01:01.552Z,82.43
2023-03-30T21:03:31.485Z,82.20
2023-03-30T21:06:04.818Z,82.44
2023-03-30T21:08:32.459Z,82.12
2023-03-30T21:10:59.555Z,82.39
2023-03-30T21:13:26.211Z,82.28
2023-03-30T21:16:00.448Z,82.50
2023-03-30T21:18:27.515Z,83.01
2023-03-30T21:20:54.411Z,83.07
2023-03-30T21:23:22.113Z,82.91
2023-03-30T21:25:48.624Z,83.04
2023-03-30T21:28:15.070Z,82.98
2023-03-30T21:30:41.457Z,83.18
2023-03-30T21:33:07.884Z,82.99
2023-03-30T21:35:34.383Z,83.05
2023-03-30T21:38:02.714Z,83.10
2023-03-30T21:40:30.461Z,83.07
2023-03-30T21:42:56.800Z,83.28
2023-03-30T21:45:24.592Z,83.06
2023-03-30T21:47:51.121Z,83.39
2023-03-30T21:50:17.698Z,83.29
2023-03-30T21:52:44.187Z,83.30
2023-03-30T21:55:10.690Z,83.28
2023-03-30T21:57:37.055Z,83.24
2023-03-30T22:00:07.237Z,83.23
2023-03-30T22:02:33.694Z,83.29
2023-03-30T22:05:00.273Z,83.31
2023-03-30T22:07:26.739Z,83.15
2023-03-30T22:09:53.154Z,83.01
2023-03-30T22:12:20.476Z,83.01
2023-03-30T22:14:46.974Z,83.07
2023-03-30T22:17:13.312Z,83.37
2023-03-30T22:19:40.548Z,83.44
2023-03-30T22:22:06.911Z,83.38
2023-03-30T22:24:33.264Z,83.70
2023-03-30T22:26:59.742Z,83.72
2023-03-30T22:29:26.243Z,84.10
2023-03-30T22:31:55.704Z,83.89
2023-03-30T22:34:22.389Z,84.16
2023-03-30T22:36:48.810Z,84.17
2023-03-30T22:39:16.575Z,84.42
2023-03-30T22:41:42.961Z,83.94
2023-03-30T22:44:09.333Z,84.43
2023-03-30T22:46:35.668Z,84.17
2023-03-30T22:49:02.445Z,84.67
2023-03-30T22:51:28.986Z,84.74
2023-03-30T22:53:59.732Z,84.33
2023-03-30T22:56:28.757Z,84.66
2023-03-30T22:58:55.358Z,84.44
2023-03-30T23:01:21.955Z,84.54
2023-03-30T23:03:48.538Z,84.16
2023-03-30T23:06:18.672Z,84.19
2023-03-30T23:08:48.237Z,84.39
2023-03-30T23:11:14.855Z,84.71
2023-03-30T23:13:42.177Z,84.41
2023-03-30T23:16:09.378Z,84.23
2023-03-30T23:18:36.128Z,84.34
2023-03-30T23:21:06.696Z,84.48
2023-03-30T23:23:37.327Z,84.40
2023-03-30T23:26:08.389Z,84.64
2023-03-30T23:28:40.299Z,84.89
2023-03-30T23:31:11.832Z,84.70
2023-03-30T23:33:38.940Z,84.86
2023-03-30T23:36:09.247Z,85.00
2023-03-30T23:38:37.189Z,85.08
2023-03-30T23:41:03.703Z,85.35
2023-03-30T23:43:30.403Z,85.20
2023-03-30T23:45:56.895Z,85.78
2023-03-30T23:48:23.332Z,85.85
2023-03-30T23:50:49.702Z,86.01
2023-03-30T23:53:16.154Z,85.95
2023-03-30T23:55:42.476Z,86.56
2023-03-30T23:58:08.894Z,86.95
